sensor_id;sensor_type;location;lat;lon;timestamp;pressure;altitude;pressure_sealevel;temperature;humidity
40730;BME280;26418;50.070;8.436;2023-01-29T00:01:24;101316.41;;;0.21;67.46
40730;BME280;26418;50.070;8.436;2023-01-29T00:03:50;101335.94;;;0.28;67.33
40730;BME280;26418;50.070;8.436;2023-01-29T00:06:15;101348.59;;;0.26;67.26
40730;BME280;26418;50.070;8.436;2023-01-29T00:08:41;101352.66;;;0.22;66.88
40730;BME280;26418;50.070;8.436;2023-01-29T00:11:07;101361.63;;;0.14;67.09
40730;BME280;26418;50.070;8.436;2023-01-29T00:13:32;101356.25;;;0.08;67.76
40730;BME280;26418;50.070;8.436;2023-01-29T00:16:01;101348.22;;;0.01;67.66
40730;BME280;26418;50.070;8.436;2023-01-29T00:18:27;101353.75;;;-0.01;66.62
40730;BME280;26418;50.070;8.436;2023-01-29T00:20:53;101365.41;;;-0.02;66.71
40730;BME280;26418;50.070;8.436;2023-01-29T00:23:19;101353.66;;;-0.14;66.92
40730;BME280;26418;50.070;8.436;2023-01-29T00:25:44;101371.72;;;-0.03;66.62
40730;BME280;26418;50.070;8.436;2023-01-29T00:28:10;101365.94;;;-0.13;66.06
40730;BME280;26418;50.070;8.436;2023-01-29T00:30:36;101374.94;;;-0.14;66.26
40730;BME280;26418;50.070;8.436;2023-01-29T00:33:02;101369.78;;;-0.16;66.90
40730;BME280;26418;50.070;8.436;2023-01-29T00:35:28;101367.56;;;-0.12;66.80
40730;BME280;26418;50.070;8.436;2023-01-29T00:37:54;101373.31;;;-0.08;66.40
40730;BME280;26418;50.070;8.436;2023-01-29T00:40:19;101374.81;;;-0.06;66.61
40730;BME280;26418;50.070;8.436;2023-01-29T00:42:45;101367.25;;;-0.02;66.30
40730;BME280;26418;50.070;8.436;2023-01-29T00:45:49;101361.25;;;-0.11;66.27
40730;BME280;26418;50.070;8.436;2023-01-29T00:48:14;101360.81;;;-0.14;67.03
40730;BME280;26418;50.070;8.436;2023-01-29T00:50:39;101357.72;;;-0.18;67.42
40730;BME280;26418;50.070;8.436;2023-01-29T00:53:04;101365.16;;;-0.07;67.54
40730;BME280;26418;50.070;8.436;2023-01-29T00:55:30;101366.25;;;-0.01;66.90
40730;BME280;26418;50.070;8.436;2023-01-29T00:57:55;101360.28;;;-0.03;66.64
40730;BME280;26418;50.070;8.436;2023-01-29T01:00:20;101353.91;;;-0.09;67.29
40730;BME280;26418;50.070;8.436;2023-01-29T01:02:46;101359.44;;;-0.04;67.41
40730;BME280;26418;50.070;8.436;2023-01-29T01:05:29;101349.22;;;-0.07;66.79
40730;BME280;26418;50.070;8.436;2023-01-29T01:07:56;101334.78;;;-0.19;66.26
40730;BME280;26418;50.070;8.436;2023-01-29T01:10:28;101351.59;;;-0.19;66.56
40730;BME280;26418;50.070;8.436;2023-01-29T01:13:01;101340.03;;;-0.33;66.75
40730;BME280;26418;50.070;8.436;2023-01-29T01:15:30;101340.22;;;-0.34;67.54
40730;BME280;26418;50.070;8.436;2023-01-29T01:17:58;101340.59;;;-0.37;67.03
40730;BME280;26418;50.070;8.436;2023-01-29T01:20:25;101343.81;;;-0.42;67.40
40730;BME280;26418;50.070;8.436;2023-01-29T01:22:52;101340.53;;;-0.44;67.00
40730;BME280;26418;50.070;8.436;2023-01-29T01:25:18;101342.75;;;-0.48;67.33
40730;BME280;26418;50.070;8.436;2023-01-29T01:27:43;101334.97;;;-0.49;67.56
40730;BME280;26418;50.070;8.436;2023-01-29T01:30:11;101328.66;;;-0.48;68.40
40730;BME280;26418;50.070;8.436;2023-01-29T01:32:38;101327.66;;;-0.47;68.49
40730;BME280;26418;50.070;8.436;2023-01-29T01:35:04;101324.78;;;-0.45;68.58
40730;BME280;26418;50.070;8.436;2023-01-29T01:37:29;101311.69;;;-0.47;68.95
40730;BME280;26418;50.070;8.436;2023-01-29T01:39:54;101317.25;;;-0.42;69.18
40730;BME280;26418;50.070;8.436;2023-01-29T01:42:26;101315.97;;;-0.46;69.52
40730;BME280;26418;50.070;8.436;2023-01-29T01:44:54;101316.44;;;-0.42;69.40
40730;BME280;26418;50.070;8.436;2023-01-29T01:47:26;101297.19;;;-0.44;69.64
40730;BME280;26418;50.070;8.436;2023-01-29T01:49:56;101292.91;;;-0.45;69.99
40730;BME280;26418;50.070;8.436;2023-01-29T01:52:28;101289.81;;;-0.49;70.28
40730;BME280;26418;50.070;8.436;2023-01-29T01:54:56;101290.59;;;-0.55;70.22
40730;BME280;26418;50.070;8.436;2023-01-29T01:57:23;101294.81;;;-0.61;70.27
40730;BME280;26418;50.070;8.436;2023-01-29T01:59:55;101283.47;;;-0.76;70.33
40730;BME280;26418;50.070;8.436;2023-01-29T02:02:22;101286.56;;;-0.73;70.53
40730;BME280;26418;50.070;8.436;2023-01-29T02:05:07;101291.44;;;-0.76;70.63
40730;BME280;26418;50.070;8.436;2023-01-29T02:07:51;101290.59;;;-0.77;71.06
40730;BME280;26418;50.070;8.436;2023-01-29T02:10:41;101281.16;;;-0.80;70.47
40730;BME280;26418;50.070;8.436;2023-01-29T02:13:07;101289.78;;;-0.77;69.78
40730;BME280;26418;50.070;8.436;2023-01-29T02:15:32;101279.53;;;-0.81;70.26
40730;BME280;26418;50.070;8.436;2023-01-29T02:17:58;101280.94;;;-0.85;70.22
40730;BME280;26418;50.070;8.436;2023-01-29T02:20:29;101287.28;;;-0.79;70.66
40730;BME280;26418;50.070;8.436;2023-01-29T02:30:49;101299.97;;;-0.81;71.12
40730;BME280;26418;50.070;8.436;2023-01-29T02:36:26;101310.75;;;-0.83;71.69
40730;BME280;26418;50.070;8.436;2023-01-29T02:39:01;101315.25;;;-0.83;71.74
40730;BME280;26418;50.070;8.436;2023-01-29T02:41:45;101315.25;;;-0.83;71.76
40730;BME280;26418;50.070;8.436;2023-01-29T02:49:59;101328.97;;;-0.80;71.92
40730;BME280;26418;50.070;8.436;2023-01-29T02:52:44;101331.06;;;-0.75;71.75
40730;BME280;26418;50.070;8.436;2023-01-29T02:55:31;101336.81;;;-0.71;71.16
40730;BME280;26418;50.070;8.436;2023-01-29T02:58:05;101316.78;;;-0.74;71.54
40730;BME280;26418;50.070;8.436;2023-01-29T03:00:36;101323.91;;;-0.74;70.64
40730;BME280;26418;50.070;8.436;2023-01-29T03:03:25;101318.16;;;-0.78;70.55
40730;BME280;26418;50.070;8.436;2023-01-29T03:06:15;101312.69;;;-0.76;70.56
40730;BME280;26418;50.070;8.436;2023-01-29T03:08:55;101314.28;;;-0.75;70.58
40730;BME280;26418;50.070;8.436;2023-01-29T03:11:22;101304.50;;;-0.75;71.00
40730;BME280;26418;50.070;8.436;2023-01-29T03:13:55;101302.50;;;-0.73;70.87
40730;BME280;26418;50.070;8.436;2023-01-29T03:18:56;101308.84;;;-0.67;70.85
40730;BME280;26418;50.070;8.436;2023-01-29T03:21:33;101317.28;;;-0.64;70.83
40730;BME280;26418;50.070;8.436;2023-01-29T03:27:15;101327.34;;;-0.59;70.83
40730;BME280;26418;50.070;8.436;2023-01-29T03:30:02;101309.88;;;-0.68;70.71
40730;BME280;26418;50.070;8.436;2023-01-29T03:32:48;101309.88;;;-0.68;70.54
40730;BME280;26418;50.070;8.436;2023-01-29T03:35:19;101329.22;;;-0.53;70.68
40730;BME280;26418;50.070;8.436;2023-01-29T03:38:02;101331.69;;;-0.51;70.10
40730;BME280;26418;50.070;8.436;2023-01-29T03:40:45;101322.47;;;-0.55;70.01
40730;BME280;26418;50.070;8.436;2023-01-29T03:46:12;101306.25;;;-0.60;70.75
40730;BME280;26418;50.070;8.436;2023-01-29T03:48:53;101310.38;;;-0.58;70.88
40730;BME280;26418;50.070;8.436;2023-01-29T03:54:06;101307.13;;;-0.53;71.05
40730;BME280;26418;50.070;8.436;2023-01-29T03:56:39;101309.19;;;-0.55;70.99
40730;BME280;26418;50.070;8.436;2023-01-29T04:01:43;101329.81;;;-0.57;71.13
40730;BME280;26418;50.070;8.436;2023-01-29T04:04:34;101320.63;;;-0.55;71.11
40730;BME280;26418;50.070;8.436;2023-01-29T04:07:09;101328.41;;;-0.53;70.08
40730;BME280;26418;50.070;8.436;2023-01-29T04:12:14;101318.16;;;-0.56;70.67
40730;BME280;26418;50.070;8.436;2023-01-29T04:14:41;101306.91;;;-0.58;70.54
40730;BME280;26418;50.070;8.436;2023-01-29T04:17:21;101297.28;;;-0.59;70.94
40730;BME280;26418;50.070;8.436;2023-01-29T04:19:48;101290.72;;;-0.64;71.08
40730;BME280;26418;50.070;8.436;2023-01-29T04:22:47;101289.69;;;-0.63;71.23
40730;BME280;26418;50.070;8.436;2023-01-29T04:25:16;101279.63;;;-0.67;70.34
40730;BME280;26418;50.070;8.436;2023-01-29T04:28:06;101288.63;;;-0.68;70.11
40730;BME280;26418;50.070;8.436;2023-01-29T04:30:51;101280.41;;;-0.73;70.45
40730;BME280;26418;50.070;8.436;2023-01-29T04:33:33;101268.09;;;-0.81;70.14
40730;BME280;26418;50.070;8.436;2023-01-29T04:39:21;101290.22;;;-0.74;70.10
40730;BME280;26418;50.070;8.436;2023-01-29T04:41:57;101291.88;;;-0.73;70.15
40730;BME280;26418;50.070;8.436;2023-01-29T04:44:31;101300.84;;;-0.74;70.69
40730;BME280;26418;50.070;8.436;2023-01-29T04:49:44;101279.91;;;-0.84;70.85
40730;BME280;26418;50.070;8.436;2023-01-29T04:52:16;101297.53;;;-0.76;71.16
40730;BME280;26418;50.070;8.436;2023-01-29T04:55:02;101300.66;;;-0.72;71.04
40730;BME280;26418;50.070;8.436;2023-01-29T04:57:36;101279.72;;;-0.82;70.82
40730;BME280;26418;50.070;8.436;2023-01-29T05:00:08;101304.94;;;-0.71;71.03
40730;BME280;26418;50.070;8.436;2023-01-29T05:02:39;101308.59;;;-0.72;70.92
40730;BME280;26418;50.070;8.436;2023-01-29T05:05:07;101282.13;;;-0.87;71.03
40730;BME280;26418;50.070;8.436;2023-01-29T05:07:35;101294.22;;;-0.85;71.17
40730;BME280;26418;50.070;8.436;2023-01-29T05:10:05;101299.69;;;-0.86;71.32
40730;BME280;26418;50.070;8.436;2023-01-29T05:12:31;101303.69;;;-0.97;70.49
40730;BME280;26418;50.070;8.436;2023-01-29T05:15:00;101289.28;;;-1.09;71.17
40730;BME280;26418;50.070;8.436;2023-01-29T05:17:27;101283.78;;;-1.08;71.75
40730;BME280;26418;50.070;8.436;2023-01-29T05:19:54;101297.56;;;-0.98;71.41
40730;BME280;26418;50.070;8.436;2023-01-29T05:22:20;101296.28;;;-1.02;71.21
40730;BME280;26418;50.070;8.436;2023-01-29T05:24:47;101298.28;;;-1.04;71.75
40730;BME280;26418;50.070;8.436;2023-01-29T05:27:18;101279.09;;;-1.06;71.82
40730;BME280;26418;50.070;8.436;2023-01-29T05:30:03;101270.69;;;-1.09;71.92
40730;BME280;26418;50.070;8.436;2023-01-29T05:32:29;101265.56;;;-1.11;72.60
40730;BME280;26418;50.070;8.436;2023-01-29T05:34:54;101277.19;;;-1.12;72.83
40730;BME280;26418;50.070;8.436;2023-01-29T05:37:19;101277.38;;;-1.14;73.00
40730;BME280;26418;50.070;8.436;2023-01-29T05:39:45;101289.84;;;-1.14;72.55
40730;BME280;26418;50.070;8.436;2023-01-29T05:42:10;101286.53;;;-1.16;72.67
40730;BME280;26418;50.070;8.436;2023-01-29T05:44:35;101291.22;;;-1.18;72.79
40730;BME280;26418;50.070;8.436;2023-01-29T05:47:01;101270.66;;;-1.31;73.11
40730;BME280;26418;50.070;8.436;2023-01-29T05:49:29;101287.88;;;-1.27;72.61
40730;BME280;26418;50.070;8.436;2023-01-29T05:51:54;101296.63;;;-1.27;73.03
40730;BME280;26418;50.070;8.436;2023-01-29T05:54:19;101303.84;;;-1.20;73.34
40730;BME280;26418;50.070;8.436;2023-01-29T05:56:45;101298.94;;;-1.23;73.07
40730;BME280;26418;50.070;8.436;2023-01-29T05:59:10;101280.81;;;-1.35;73.05
40730;BME280;26418;50.070;8.436;2023-01-29T06:01:35;101298.03;;;-1.31;73.13
40730;BME280;26418;50.070;8.436;2023-01-29T06:04:01;101296.38;;;-1.32;73.86
40730;BME280;26418;50.070;8.436;2023-01-29T06:06:26;101308.47;;;-1.29;74.15
40730;BME280;26418;50.070;8.436;2023-01-29T06:08:52;101288.16;;;-1.37;73.56
40730;BME280;26418;50.070;8.436;2023-01-29T06:11:17;101290.25;;;-1.32;73.82
40730;BME280;26418;50.070;8.436;2023-01-29T06:13:43;101291.97;;;-1.24;74.11
40730;BME280;26418;50.070;8.436;2023-01-29T06:16:10;101300.56;;;-1.22;73.71
40730;BME280;26418;50.070;8.436;2023-01-29T06:18:37;101303.03;;;-1.21;73.08
40730;BME280;26418;50.070;8.436;2023-01-29T06:21:03;101291.78;;;-1.23;72.88
40730;BME280;26418;50.070;8.436;2023-01-29T06:23:30;101277.25;;;-1.27;72.52
40730;BME280;26418;50.070;8.436;2023-01-29T06:26:02;101275.84;;;-1.23;72.24
40730;BME280;26418;50.070;8.436;2023-01-29T06:28:29;101268.44;;;-1.28;72.50
40730;BME280;26418;50.070;8.436;2023-01-29T06:30:58;101272.75;;;-1.27;72.42
40730;BME280;26418;50.070;8.436;2023-01-29T06:33:24;101259.84;;;-1.30;72.94
40730;BME280;26418;50.070;8.436;2023-01-29T06:35:57;101276.13;;;-1.18;72.00
40730;BME280;26418;50.070;8.436;2023-01-29T06:38:23;101265.88;;;-1.21;72.54
40730;BME280;26418;50.070;8.436;2023-01-29T06:40:48;101272.75;;;-1.27;72.23
40730;BME280;26418;50.070;8.436;2023-01-29T06:43:14;101284.00;;;-1.24;72.91
40730;BME280;26418;50.070;8.436;2023-01-29T06:45:50;101281.59;;;-1.19;72.96
40730;BME280;26418;50.070;8.436;2023-01-29T06:48:16;101277.28;;;-1.20;72.84
40730;BME280;26418;50.070;8.436;2023-01-29T06:50:41;101280.34;;;-1.23;72.06
40730;BME280;26418;50.070;8.436;2023-01-29T06:53:07;101272.19;;;-1.22;72.52
40730;BME280;26418;50.070;8.436;2023-01-29T06:55:32;101277.69;;;-1.23;72.43
40730;BME280;26418;50.070;8.436;2023-01-29T06:57:57;101282.56;;;-1.27;72.72
40730;BME280;26418;50.070;8.436;2023-01-29T07:00:23;101276.41;;;-1.28;72.62
40730;BME280;26418;50.070;8.436;2023-01-29T07:02:48;101272.06;;;-1.35;72.60
40730;BME280;26418;50.070;8.436;2023-01-29T07:05:14;101288.47;;;-1.25;72.82
40730;BME280;26418;50.070;8.436;2023-01-29T07:07:39;101300.00;;;-1.18;72.91
40730;BME280;26418;50.070;8.436;2023-01-29T07:10:05;101288.75;;;-1.20;72.70
40730;BME280;26418;50.070;8.436;2023-01-29T07:12:30;101301.63;;;-1.17;72.50
40730;BME280;26418;50.070;8.436;2023-01-29T07:14:55;101304.69;;;-1.20;72.88
40730;BME280;26418;50.070;8.436;2023-01-29T07:17:21;101310.81;;;-1.19;73.11
40730;BME280;26418;50.070;8.436;2023-01-29T07:19:46;101311.09;;;-1.14;73.10
40730;BME280;26418;50.070;8.436;2023-01-29T07:22:11;101325.81;;;-1.12;72.97
40730;BME280;26418;50.070;8.436;2023-01-29T07:24:37;101323.59;;;-1.08;73.37
40730;BME280;26418;50.070;8.436;2023-01-29T07:27:02;101308.88;;;-1.11;72.96
40730;BME280;26418;50.070;8.436;2023-01-29T07:29:27;101323.78;;;-1.09;73.20
40730;BME280;26418;50.070;8.436;2023-01-29T07:31:53;101340.16;;;-1.06;73.54
40730;BME280;26418;50.070;8.436;2023-01-29T07:34:18;101338.56;;;-1.00;73.82
40730;BME280;26418;50.070;8.436;2023-01-29T07:36:43;101324.28;;;-0.99;73.01
40730;BME280;26418;50.070;8.436;2023-01-29T07:39:08;101321.81;;;-1.01;72.90
40730;BME280;26418;50.070;8.436;2023-01-29T07:41:34;101326.81;;;-0.91;73.76
40730;BME280;26418;50.070;8.436;2023-01-29T07:43:59;101330.88;;;-0.73;80.25
40730;BME280;26418;50.070;8.436;2023-01-29T07:46:24;101313.19;;;-0.38;79.80
40730;BME280;26418;50.070;8.436;2023-01-29T07:48:50;101317.53;;;-0.02;81.68
40730;BME280;26418;50.070;8.436;2023-01-29T07:51:15;101309.34;;;0.35;86.66
40730;BME280;26418;50.070;8.436;2023-01-29T07:53:42;101291.44;;;0.64;84.78
40730;BME280;26418;50.070;8.436;2023-01-29T07:56:09;101290.44;;;0.78;84.55
40730;BME280;26418;50.070;8.436;2023-01-29T07:58:34;101267.09;;;0.81;83.65
40730;BME280;26418;50.070;8.436;2023-01-29T08:01:04;101266.09;;;0.82;80.21
40730;BME280;26418;50.070;8.436;2023-01-29T08:03:29;101281.22;;;0.74;78.95
40730;BME280;26418;50.070;8.436;2023-01-29T08:05:56;101296.78;;;0.71;78.81
40730;BME280;26418;50.070;8.436;2023-01-29T08:08:21;101291.38;;;0.51;70.47
40730;BME280;26418;50.070;8.436;2023-01-29T08:10:47;101292.94;;;0.31;71.63
40730;BME280;26418;50.070;8.436;2023-01-29T08:13:12;101290.88;;;0.27;72.78
40730;BME280;26418;50.070;8.436;2023-01-29T08:15:37;101300.91;;;0.31;74.70
40730;BME280;26418;50.070;8.436;2023-01-29T08:18:06;101304.75;;;0.22;70.12
40730;BME280;26418;50.070;8.436;2023-01-29T08:20:31;101321.38;;;0.24;70.20
40730;BME280;26418;50.070;8.436;2023-01-29T08:23:04;101325.75;;;0.04;68.80
40730;BME280;26418;50.070;8.436;2023-01-29T08:25:31;101323.69;;;-0.01;69.49
40730;BME280;26418;50.070;8.436;2023-01-29T08:27:57;101312.09;;;-0.22;68.15
40730;BME280;26418;50.070;8.436;2023-01-29T08:30:27;101311.22;;;-0.29;68.80
40730;BME280;26418;50.070;8.436;2023-01-29T08:32:53;101293.97;;;-0.40;69.89
40730;BME280;26418;50.070;8.436;2023-01-29T08:35:18;101304.97;;;-0.43;68.86
40730;BME280;26418;50.070;8.436;2023-01-29T08:37:51;101298.00;;;-0.44;70.00
40730;BME280;26418;50.070;8.436;2023-01-29T08:40:17;101299.03;;;-0.45;68.83
40730;BME280;26418;50.070;8.436;2023-01-29T08:42:42;101298.34;;;-0.54;69.01
40730;BME280;26418;50.070;8.436;2023-01-29T08:45:08;101312.81;;;-0.35;68.49
40730;BME280;26418;50.070;8.436;2023-01-29T08:47:33;101324.16;;;-0.19;67.33
40730;BME280;26418;50.070;8.436;2023-01-29T08:49:59;101318.41;;;-0.23;66.91
40730;BME280;26418;50.070;8.436;2023-01-29T08:52:24;101330.31;;;-0.19;67.39
40730;BME280;26418;50.070;8.436;2023-01-29T08:54:49;101317.41;;;-0.22;67.50
40730;BME280;26418;50.070;8.436;2023-01-29T08:57:15;101315.59;;;-0.14;67.41
40730;BME280;26418;50.070;8.436;2023-01-29T08:59:40;101312.09;;;-0.22;67.85
40730;BME280;26418;50.070;8.436;2023-01-29T09:02:06;101321.78;;;-0.07;68.08
40730;BME280;26418;50.070;8.436;2023-01-29T09:04:31;101320.63;;;0.02;68.33
40730;BME280;26418;50.070;8.436;2023-01-29T09:06:56;101325.72;;;-0.32;67.71
40730;BME280;26418;50.070;8.436;2023-01-29T09:09:22;101330.88;;;-0.52;68.30
40730;BME280;26418;50.070;8.436;2023-01-29T09:11:47;101322.47;;;-0.55;68.34
40730;BME280;26418;50.070;8.436;2023-01-29T09:14:12;101329.72;;;-0.64;68.84
40730;BME280;26418;50.070;8.436;2023-01-29T09:16:39;101335.63;;;-0.69;69.50
40730;BME280;26418;50.070;8.436;2023-01-29T09:19:04;101355.97;;;-0.54;69.18
40730;BME280;26418;50.070;8.436;2023-01-29T09:21:30;101353.69;;;-0.36;68.80
40730;BME280;26418;50.070;8.436;2023-01-29T09:23:55;101348.81;;;-0.32;68.21
40730;BME280;26418;50.070;8.436;2023-01-29T09:26:20;101357.03;;;-0.27;68.35
40730;BME280;26418;50.070;8.436;2023-01-29T09:28:46;101347.72;;;-0.38;67.91
40730;BME280;26418;50.070;8.436;2023-01-29T09:31:11;101358.91;;;-0.49;68.57
40730;BME280;26418;50.070;8.436;2023-01-29T09:33:36;101363.31;;;-0.35;71.35
40730;BME280;26418;50.070;8.436;2023-01-29T09:36:02;101372.38;;;-0.01;76.39
40730;BME280;26418;50.070;8.436;2023-01-29T09:38:28;101364.03;;;0.09;70.11
40730;BME280;26418;50.070;8.436;2023-01-29T09:40:59;101362.13;;;0.31;66.90
40730;BME280;26418;50.070;8.436;2023-01-29T09:43:42;101363.78;;;0.33;66.73
40730;BME280;26418;50.070;8.436;2023-01-29T09:46:39;101359.28;;;0.33;66.92
40730;BME280;26418;50.070;8.436;2023-01-29T09:49:28;101362.97;;;0.32;66.43
40730;BME280;26418;50.070;8.436;2023-01-29T09:52:04;101368.34;;;0.10;66.10
40730;BME280;26418;50.070;8.436;2023-01-29T09:54:32;101360.28;;;-0.03;66.53
40730;BME280;26418;50.070;8.436;2023-01-29T09:57:01;101352.41;;;-0.18;67.32
40730;BME280;26418;50.070;8.436;2023-01-29T09:59:29;101359.28;;;0.05;68.23
40730;BME280;26418;50.070;8.436;2023-01-29T10:04:49;101353.47;;;-0.12;66.17
40730;BME280;26418;50.070;8.436;2023-01-29T10:15:37;101344.66;;;0.22;66.18
40730;BME280;26418;50.070;8.436;2023-01-29T10:23:44;101317.25;;;-0.13;66.93
40730;BME280;26418;50.070;8.436;2023-01-29T10:26:11;101306.66;;;-0.07;67.60
40730;BME280;26418;50.070;8.436;2023-01-29T10:28:42;101306.56;;;0.08;66.98
40730;BME280;26418;50.070;8.436;2023-01-29T10:33:49;101279.31;;;0.06;65.70
40730;BME280;26418;50.070;8.436;2023-01-29T10:36:20;101271.50;;;-0.02;66.81
40730;BME280;26418;50.070;8.436;2023-01-29T10:38:48;101279.13;;;0.08;66.08
40730;BME280;26418;50.070;8.436;2023-01-29T10:44:22;101271.00;;;0.23;66.24
40730;BME280;26418;50.070;8.436;2023-01-29T11:00:24;101241.72;;;1.38;64.36
40730;BME280;26418;50.070;8.436;2023-01-29T11:02:51;101231.03;;;1.59;62.80
40730;BME280;26418;50.070;8.436;2023-01-29T11:11:17;101230.84;;;1.47;62.19
40730;BME280;26418;50.070;8.436;2023-01-29T11:14:03;101222.59;;;1.75;61.34
40730;BME280;26418;50.070;8.436;2023-01-29T11:16:42;101213.75;;;1.81;60.90
40730;BME280;26418;50.070;8.436;2023-01-29T11:19:08;101208.56;;;2.00;61.76
40730;BME280;26418;50.070;8.436;2023-01-29T11:21:50;101208.28;;;2.22;61.20
40730;BME280;26418;50.070;8.436;2023-01-29T11:24:16;101211.97;;;2.20;59.83
40730;BME280;26418;50.070;8.436;2023-01-29T11:26:45;101219.19;;;2.13;58.90
40730;BME280;26418;50.070;8.436;2023-01-29T11:31:58;101213.84;;;1.54;60.85
40730;BME280;26418;50.070;8.436;2023-01-29T11:34:25;101207.44;;;1.62;61.48
40730;BME280;26418;50.070;8.436;2023-01-29T11:37:14;101205.97;;;1.86;60.64
40730;BME280;26418;50.070;8.436;2023-01-29T11:39:44;101198.75;;;1.94;60.25
40730;BME280;26418;50.070;8.436;2023-01-29T11:42:19;101192.94;;;2.03;60.06
40730;BME280;26418;50.070;8.436;2023-01-29T11:44:45;101183.69;;;2.06;60.06
40730;BME280;26418;50.070;8.436;2023-01-29T11:47:20;101190.41;;;2.22;59.18
40730;BME280;26418;50.070;8.436;2023-01-29T11:49:49;101181.66;;;2.47;59.69
40730;BME280;26418;50.070;8.436;2023-01-29T11:52:18;101179.34;;;2.57;59.12
40730;BME280;26418;50.070;8.436;2023-01-29T11:55:05;101157.13;;;2.57;58.69
40730;BME280;26418;50.070;8.436;2023-01-29T11:57:41;101140.59;;;2.41;58.12
40730;BME280;26418;50.070;8.436;2023-01-29T12:00:16;101160.97;;;2.35;58.35
40730;BME280;26418;50.070;8.436;2023-01-29T12:02:55;101157.81;;;2.13;58.62
40730;BME280;26418;50.070;8.436;2023-01-29T12:05:24;101141.84;;;2.00;59.36
40730;BME280;26418;50.070;8.436;2023-01-29T12:07:57;101142.47;;;2.02;59.82
40730;BME280;26418;50.070;8.436;2023-01-29T12:10:34;101145.31;;;2.07;59.99
40730;BME280;26418;50.070;8.436;2023-01-29T12:13:26;101134.78;;;1.80;59.92
40730;BME280;26418;50.070;8.436;2023-01-29T12:18:58;101128.91;;;1.51;61.25
40730;BME280;26418;50.070;8.436;2023-01-29T12:21:42;101141.06;;;1.40;60.44
40730;BME280;26418;50.070;8.436;2023-01-29T12:24:30;101132.66;;;1.37;61.21
40730;BME280;26418;50.070;8.436;2023-01-29T12:27:13;101131.00;;;1.43;62.37
40730;BME280;26418;50.070;8.436;2023-01-29T12:32:46;101121.56;;;1.40;61.76
40730;BME280;26418;50.070;8.436;2023-01-29T12:35:21;101117.50;;;1.24;62.08
40730;BME280;26418;50.070;8.436;2023-01-29T12:40:20;101106.41;;;1.27;63.60
40730;BME280;26418;50.070;8.436;2023-01-29T12:42:53;101097.38;;;1.41;62.68
40730;BME280;26418;50.070;8.436;2023-01-29T12:45:21;101085.72;;;1.29;62.42
40730;BME280;26418;50.070;8.436;2023-01-29T12:47:51;101086.69;;;1.48;64.41
40730;BME280;26418;50.070;8.436;2023-01-29T12:50:20;101078.88;;;1.53;62.77
40730;BME280;26418;50.070;8.436;2023-01-29T12:53:18;101085.94;;;1.34;62.82
40730;BME280;26418;50.070;8.436;2023-01-29T12:55:51;101081.81;;;1.32;62.64
40730;BME280;26418;50.070;8.436;2023-01-29T12:58:28;101077.16;;;1.20;62.93
40730;BME280;26418;50.070;8.436;2023-01-29T13:01:02;101079.34;;;1.37;63.50
40730;BME280;26418;50.070;8.436;2023-01-29T13:03:44;101067.44;;;1.39;63.17
40730;BME280;26418;50.070;8.436;2023-01-29T13:06:16;101069.47;;;1.44;63.32
40730;BME280;26418;50.070;8.436;2023-01-29T13:08:58;101072.31;;;1.49;63.58
40730;BME280;26418;50.070;8.436;2023-01-29T13:11:37;101065.19;;;1.36;62.46
40730;BME280;26418;50.070;8.436;2023-01-29T13:16:49;101050.50;;;1.20;63.36
40730;BME280;26418;50.070;8.436;2023-01-29T13:21:45;101034.38;;;0.88;64.24
40730;BME280;26418;50.070;8.436;2023-01-29T13:24:15;101056.09;;;0.92;64.17
40730;BME280;26418;50.070;8.436;2023-01-29T13:26:47;101045.44;;;0.85;64.33
40730;BME280;26418;50.070;8.436;2023-01-29T13:29:24;101052.19;;;0.88;64.96
40730;BME280;26418;50.070;8.436;2023-01-29T13:31:53;101049.53;;;0.81;64.82
40730;BME280;26418;50.070;8.436;2023-01-29T13:34:24;101033.16;;;0.84;65.40
40730;BME280;26418;50.070;8.436;2023-01-29T13:36:58;101032.53;;;0.96;66.14
40730;BME280;26418;50.070;8.436;2023-01-29T13:39:30;101026.19;;;0.83;65.05
40730;BME280;26418;50.070;8.436;2023-01-29T13:41:58;101049.09;;;0.98;64.92
40730;BME280;26418;50.070;8.436;2023-01-29T13:46:53;101038.44;;;1.11;65.19
40730;BME280;26418;50.070;8.436;2023-01-29T13:49:34;101033.09;;;1.11;65.26
40730;BME280;26418;50.070;8.436;2023-01-29T13:52:20;101039.88;;;1.07;65.20
40730;BME280;26418;50.070;8.436;2023-01-29T14:10:37;101011.50;;;0.60;66.59
40730;BME280;26418;50.070;8.436;2023-01-29T14:15:33;101011.50;;;0.60;67.10
40730;BME280;26418;50.070;8.436;2023-01-29T14:18:12;101013.09;;;0.68;67.49
40730;BME280;26418;50.070;8.436;2023-01-29T14:21:01;101025.22;;;0.71;66.91
40730;BME280;26418;50.070;8.436;2023-01-29T14:23:44;101008.00;;;0.60;67.40
40730;BME280;26418;50.070;8.436;2023-01-29T14:29:05;101014.16;;;0.67;67.13
40730;BME280;26418;50.070;8.436;2023-01-29T14:31:48;101006.13;;;0.74;66.98
40730;BME280;26418;50.070;8.436;2023-01-29T14:34:31;101002.44;;;0.75;67.03
40730;BME280;26418;50.070;8.436;2023-01-29T14:37:01;101003.06;;;0.84;67.37
40730;BME280;26418;50.070;8.436;2023-01-29T14:39:34;100995.47;;;0.81;67.48
40730;BME280;26418;50.070;8.436;2023-01-29T14:42:04;100998.34;;;0.79;67.54
40730;BME280;26418;50.070;8.436;2023-01-29T14:47:50;100985.09;;;0.52;67.70
40730;BME280;26418;50.070;8.436;2023-01-29T14:55:54;100983.84;;;0.61;68.09
40730;BME280;26418;50.070;8.436;2023-01-29T14:58:32;100970.53;;;0.55;68.48
40730;BME280;26418;50.070;8.436;2023-01-29T15:00:58;100984.47;;;0.57;68.62
40730;BME280;26418;50.070;8.436;2023-01-29T15:03:30;100980.78;;;0.58;68.88
40730;BME280;26418;50.070;8.436;2023-01-29T15:06:00;100974.63;;;0.57;69.09
40730;BME280;26418;50.070;8.436;2023-01-29T15:08:37;100972.41;;;0.54;69.31
40730;BME280;26418;50.070;8.436;2023-01-29T15:11:19;100968.72;;;0.49;69.63
40730;BME280;26418;50.070;8.436;2023-01-29T15:14:11;100972.19;;;0.49;69.96
40730;BME280;26418;50.070;8.436;2023-01-29T15:19:40;100946.63;;;0.35;70.44
40730;BME280;26418;50.070;8.436;2023-01-29T15:22:12;100961.97;;;0.39;70.77
40730;BME280;26418;50.070;8.436;2023-01-29T15:24:38;100952.34;;;0.38;71.23